sensor_id;sensor_type;location;lat;lon;timestamp;P1;durP1;ratioP1;P2;durP2;ratioP2
142;SDS011;63667;49.046;8.468;2023-03-01T00:01:36;46.83;;;18.17;;
142;SDS011;63667;49.046;8.468;2023-03-01T00:04:03;40.63;;;17.97;;
142;SDS011;63667;49.046;8.468;2023-03-01T00:06:31;43.73;;;17.77;;
142;SDS011;63667;49.046;8.468;2023-03-01T00:08:58;58.77;;;18.10;;
142;SDS011;63667;49.046;8.468;2023-03-01T00:11:27;42.47;;;16.40;;
142;SDS011;63667;49.046;8.468;2023-03-01T00:13:56;42.70;;;17.10;;
142;SDS011;63667;49.046;8.468;2023-03-01T00:16:26;40.37;;;17.00;;
142;SDS011;63667;49.046;8.468;2023-03-01T00:18:54;46.83;;;17.20;;
142;SDS011;63667;49.046;8.468;2023-03-01T00:21:22;42.47;;;17.30;;
142;SDS011;63667;49.046;8.468;2023-03-01T00:23:50;44.83;;;18.87;;
142;SDS011;63667;49.046;8.468;2023-03-01T00:26:18;47.40;;;17.80;;
142;SDS011;63667;49.046;8.468;2023-03-01T00:28:44;45.20;;;17.97;;
142;SDS011;63667;49.046;8.468;2023-03-01T00:31:13;34.20;;;15.23;;
142;SDS011;63667;49.046;8.468;2023-03-01T00:33:40;43.37;;;18.20;;
142;SDS011;63667;49.046;8.468;2023-03-01T00:36:08;43.90;;;17.20;;
142;SDS011;63667;49.046;8.468;2023-03-01T00:38:36;49.53;;;17.03;;
142;SDS011;63667;49.046;8.468;2023-03-01T00:41:11;44.60;;;16.60;;
142;SDS011;63667;49.046;8.468;2023-03-01T00:43:38;42.53;;;17.60;;
142;SDS011;63667;49.046;8.468;2023-03-01T00:46:07;40.20;;;16.90;;
142;SDS011;63667;49.046;8.468;2023-03-01T00:48:35;44.30;;;17.80;;
142;SDS011;63667;49.046;8.468;2023-03-01T00:51:07;41.17;;;16.33;;
142;SDS011;63667;49.046;8.468;2023-03-01T00:53:37;42.67;;;16.43;;
142;SDS011;63667;49.046;8.468;2023-03-01T00:56:06;46.47;;;18.00;;
142;SDS011;63667;49.046;8.468;2023-03-01T00:58:36;41.10;;;16.57;;
142;SDS011;63667;49.046;8.468;2023-03-01T01:01:09;41.10;;;17.17;;
142;SDS011;63667;49.046;8.468;2023-03-01T01:03:52;54.20;;;17.40;;
142;SDS011;63667;49.046;8.468;2023-03-01T01:06:36;38.43;;;16.77;;
142;SDS011;63667;49.046;8.468;2023-03-01T01:09:05;34.27;;;15.87;;
142;SDS011;63667;49.046;8.468;2023-03-01T01:11:32;39.57;;;16.10;;
142;SDS011;63667;49.046;8.468;2023-03-01T01:14:02;42.43;;;16.47;;
142;SDS011;63667;49.046;8.468;2023-03-01T01:16:31;40.57;;;16.60;;
142;SDS011;63667;49.046;8.468;2023-03-01T01:18:58;45.27;;;18.00;;
142;SDS011;63667;49.046;8.468;2023-03-01T01:21:27;37.97;;;15.27;;
142;SDS011;63667;49.046;8.468;2023-03-01T01:23:54;42.90;;;16.73;;
142;SDS011;63667;49.046;8.468;2023-03-01T01:26:30;38.63;;;16.03;;
142;SDS011;63667;49.046;8.468;2023-03-01T01:28:56;38.93;;;15.80;;
142;SDS011;63667;49.046;8.468;2023-03-01T01:31:24;42.70;;;17.17;;
142;SDS011;63667;49.046;8.468;2023-03-01T01:33:52;43.10;;;17.00;;
142;SDS011;63667;49.046;8.468;2023-03-01T01:36:19;46.63;;;17.07;;
142;SDS011;63667;49.046;8.468;2023-03-01T01:38:47;38.47;;;16.20;;
142;SDS011;63667;49.046;8.468;2023-03-01T01:41:14;37.40;;;16.23;;
142;SDS011;63667;49.046;8.468;2023-03-01T01:43:43;42.10;;;17.20;;
142;SDS011;63667;49.046;8.468;2023-03-01T01:48:40;38.50;;;15.43;;
142;SDS011;63667;49.046;8.468;2023-03-01T01:51:16;43.00;;;17.70;;
142;SDS011;63667;49.046;8.468;2023-03-01T01:53:45;44.10;;;16.40;;
142;SDS011;63667;49.046;8.468;2023-03-01T01:56:15;44.17;;;17.47;;
142;SDS011;63667;49.046;8.468;2023-03-01T01:58:43;45.13;;;16.63;;
142;SDS011;63667;49.046;8.468;2023-03-01T02:01:11;44.43;;;16.30;;
142;SDS011;63667;49.046;8.468;2023-03-01T02:03:39;40.17;;;16.17;;
142;SDS011;63667;49.046;8.468;2023-03-01T02:06:12;38.73;;;16.10;;
142;SDS011;63667;49.046;8.468;2023-03-01T02:08:40;44.30;;;17.20;;
142;SDS011;63667;49.046;8.468;2023-03-01T02:11:07;40.23;;;17.07;;
142;SDS011;63667;49.046;8.468;2023-03-01T02:13:35;42.23;;;17.60;;
142;SDS011;63667;49.046;8.468;2023-03-01T02:16:12;40.53;;;16.50;;
142;SDS011;63667;49.046;8.468;2023-03-01T02:18:50;44.27;;;16.50;;
142;SDS011;63667;49.046;8.468;2023-03-01T02:21:25;42.37;;;18.40;;
142;SDS011;63667;49.046;8.468;2023-03-01T02:23:59;42.60;;;16.90;;
142;SDS011;63667;49.046;8.468;2023-03-01T02:28:55;44.50;;;17.93;;
142;SDS011;63667;49.046;8.468;2023-03-01T02:31:22;46.20;;;17.60;;
142;SDS011;63667;49.046;8.468;2023-03-01T02:34:12;50.40;;;17.37;;
142;SDS011;63667;49.046;8.468;2023-03-01T02:36:44;43.90;;;17.97;;
142;SDS011;63667;49.046;8.468;2023-03-01T02:39:13;45.40;;;17.67;;
142;SDS011;63667;49.046;8.468;2023-03-01T02:41:43;43.33;;;17.37;;
142;SDS011;63667;49.046;8.468;2023-03-01T02:44:10;43.03;;;17.33;;
142;SDS011;63667;49.046;8.468;2023-03-01T02:46:48;43.60;;;18.57;;
142;SDS011;63667;49.046;8.468;2023-03-01T02:49:31;45.90;;;17.57;;
142;SDS011;63667;49.046;8.468;2023-03-01T02:53:01;48.07;;;18.90;;
142;SDS011;63667;49.046;8.468;2023-03-01T02:55:13;47.50;;;19.20;;
142;SDS011;63667;49.046;8.468;2023-03-01T02:57:56;52.07;;;20.00;;
142;SDS011;63667;49.046;8.468;2023-03-01T03:00:28;47.73;;;19.00;;
142;SDS011;63667;49.046;8.468;2023-03-01T03:02:56;47.53;;;18.50;;
142;SDS011;63667;49.046;8.468;2023-03-01T03:05:26;47.90;;;18.93;;
142;SDS011;63667;49.046;8.468;2023-03-01T03:07:53;50.83;;;19.23;;
142;SDS011;63667;49.046;8.468;2023-03-01T03:12:48;47.00;;;19.20;;
142;SDS011;63667;49.046;8.468;2023-03-01T03:15:16;45.03;;;18.47;;
142;SDS011;63667;49.046;8.468;2023-03-01T03:17:46;47.43;;;18.50;;
142;SDS011;63667;49.046;8.468;2023-03-01T03:20:14;52.23;;;19.00;;
142;SDS011;63667;49.046;8.468;2023-03-01T03:22:45;49.90;;;20.00;;
142;SDS011;63667;49.046;8.468;2023-03-01T03:25:14;50.47;;;18.90;;
142;SDS011;63667;49.046;8.468;2023-03-01T03:27:42;48.23;;;20.60;;
142;SDS011;63667;49.046;8.468;2023-03-01T03:30:11;48.33;;;18.30;;
142;SDS011;63667;49.046;8.468;2023-03-01T03:32:39;52.37;;;19.23;;
142;SDS011;63667;49.046;8.468;2023-03-01T03:35:08;49.80;;;19.40;;
142;SDS011;63667;49.046;8.468;2023-03-01T03:37:36;44.20;;;19.27;;
142;SDS011;63667;49.046;8.468;2023-03-01T03:40:21;51.20;;;21.23;;
142;SDS011;63667;49.046;8.468;2023-03-01T03:42:49;53.07;;;20.03;;
142;SDS011;63667;49.046;8.468;2023-03-01T03:45:17;52.10;;;19.10;;
142;SDS011;63667;49.046;8.468;2023-03-01T03:47:45;49.50;;;19.13;;
142;SDS011;63667;49.046;8.468;2023-03-01T03:50:14;46.33;;;18.63;;
142;SDS011;63667;49.046;8.468;2023-03-01T03:52:41;47.00;;;18.13;;
142;SDS011;63667;49.046;8.468;2023-03-01T03:55:09;51.23;;;19.97;;
142;SDS011;63667;49.046;8.468;2023-03-01T03:57:37;45.47;;;19.40;;
142;SDS011;63667;49.046;8.468;2023-03-01T04:00:06;49.40;;;19.53;;
142;SDS011;63667;49.046;8.468;2023-03-01T04:02:41;53.47;;;20.50;;
142;SDS011;63667;49.046;8.468;2023-03-01T04:05:12;47.40;;;18.07;;
142;SDS011;63667;49.046;8.468;2023-03-01T04:07:40;48.20;;;19.43;;
142;SDS011;63667;49.046;8.468;2023-03-01T04:10:09;45.23;;;18.90;;
142;SDS011;63667;49.046;8.468;2023-03-01T04:12:38;52.87;;;20.90;;
142;SDS011;63667;49.046;8.468;2023-03-01T04:15:06;54.57;;;19.93;;
142;SDS011;63667;49.046;8.468;2023-03-01T04:17:39;50.00;;;19.70;;
142;SDS011;63667;49.046;8.468;2023-03-01T04:20:11;52.77;;;19.80;;
142;SDS011;63667;49.046;8.468;2023-03-01T04:22:38;51.83;;;19.73;;
142;SDS011;63667;49.046;8.468;2023-03-01T04:25:07;52.37;;;19.77;;
142;SDS011;63667;49.046;8.468;2023-03-01T04:27:35;46.07;;;18.77;;
142;SDS011;63667;49.046;8.468;2023-03-01T04:30:04;50.90;;;20.53;;
142;SDS011;63667;49.046;8.468;2023-03-01T04:32:32;50.07;;;19.70;;
142;SDS011;63667;49.046;8.468;2023-03-01T04:34:59;48.83;;;20.43;;
142;SDS011;63667;49.046;8.468;2023-03-01T04:37:28;50.77;;;18.87;;
142;SDS011;63667;49.046;8.468;2023-03-01T04:39:55;52.27;;;20.03;;
142;SDS011;63667;49.046;8.468;2023-03-01T04:42:23;54.43;;;20.20;;
142;SDS011;63667;49.046;8.468;2023-03-01T04:44:50;53.57;;;20.67;;
142;SDS011;63667;49.046;8.468;2023-03-01T04:47:18;51.50;;;19.30;;
142;SDS011;63667;49.046;8.468;2023-03-01T04:49:45;49.33;;;18.97;;
142;SDS011;63667;49.046;8.468;2023-03-01T04:52:14;56.93;;;20.73;;
142;SDS011;63667;49.046;8.468;2023-03-01T04:54:41;51.10;;;19.90;;
142;SDS011;63667;49.046;8.468;2023-03-01T04:57:09;55.67;;;21.00;;
142;SDS011;63667;49.046;8.468;2023-03-01T04:59:36;58.60;;;20.13;;
142;SDS011;63667;49.046;8.468;2023-03-01T05:02:03;65.33;;;20.40;;
142;SDS011;63667;49.046;8.468;2023-03-01T05:04:32;55.00;;;20.40;;
142;SDS011;63667;49.046;8.468;2023-03-01T05:06:59;53.63;;;20.13;;
142;SDS011;63667;49.046;8.468;2023-03-01T05:09:27;62.50;;;20.40;;
142;SDS011;63667;49.046;8.468;2023-03-01T05:11:55;55.40;;;20.93;;
142;SDS011;63667;49.046;8.468;2023-03-01T05:14:22;55.27;;;21.40;;
142;SDS011;63667;49.046;8.468;2023-03-01T05:16:50;56.13;;;20.93;;
142;SDS011;63667;49.046;8.468;2023-03-01T05:19:17;53.63;;;20.17;;
142;SDS011;63667;49.046;8.468;2023-03-01T05:21:48;55.10;;;19.30;;
142;SDS011;63667;49.046;8.468;2023-03-01T05:24:33;55.27;;;19.83;;
142;SDS011;63667;49.046;8.468;2023-03-01T05:27:01;64.37;;;22.57;;
142;SDS011;63667;49.046;8.468;2023-03-01T05:29:29;56.30;;;21.20;;
142;SDS011;63667;49.046;8.468;2023-03-01T05:31:58;62.33;;;22.20;;
142;SDS011;63667;49.046;8.468;2023-03-01T05:34:27;59.60;;;21.67;;
142;SDS011;63667;49.046;8.468;2023-03-01T05:36:55;66.53;;;21.77;;
142;SDS011;63667;49.046;8.468;2023-03-01T05:39:23;58.50;;;21.40;;
142;SDS011;63667;49.046;8.468;2023-03-01T05:41:52;66.50;;;20.93;;
142;SDS011;63667;49.046;8.468;2023-03-01T05:44:19;58.80;;;22.60;;
142;SDS011;63667;49.046;8.468;2023-03-01T05:46:47;65.57;;;21.23;;
142;SDS011;63667;49.046;8.468;2023-03-01T05:49:15;58.87;;;20.80;;
142;SDS011;63667;49.046;8.468;2023-03-01T05:51:43;56.40;;;20.33;;
142;SDS011;63667;49.046;8.468;2023-03-01T05:54:13;60.87;;;22.17;;
142;SDS011;63667;49.046;8.468;2023-03-01T05:56:40;54.03;;;19.83;;
142;SDS011;63667;49.046;8.468;2023-03-01T05:59:07;58.50;;;20.10;;
142;SDS011;63667;49.046;8.468;2023-03-01T06:01:35;49.87;;;20.47;;
142;SDS011;63667;49.046;8.468;2023-03-01T06:04:02;61.27;;;22.13;;
142;SDS011;63667;49.046;8.468;2023-03-01T06:06:30;52.00;;;20.23;;
142;SDS011;63667;49.046;8.468;2023-03-01T06:08:59;54.23;;;19.20;;
142;SDS011;63667;49.046;8.468;2023-03-01T06:11:27;59.57;;;20.93;;
142;SDS011;63667;49.046;8.468;2023-03-01T06:13:53;56.97;;;21.00;;
142;SDS011;63667;49.046;8.468;2023-03-01T06:16:20;56.00;;;20.80;;
142;SDS011;63667;49.046;8.468;2023-03-01T06:18:48;56.40;;;21.33;;
142;SDS011;63667;49.046;8.468;2023-03-01T06:21:15;68.43;;;21.77;;
142;SDS011;63667;49.046;8.468;2023-03-01T06:23:42;59.00;;;21.03;;
142;SDS011;63667;49.046;8.468;2023-03-01T06:26:09;56.73;;;20.53;;
142;SDS011;63667;49.046;8.468;2023-03-01T06:28:35;60.53;;;21.07;;
142;SDS011;63667;49.046;8.468;2023-03-01T06:31:02;56.63;;;21.33;;
142;SDS011;63667;49.046;8.468;2023-03-01T06:33:28;59.07;;;21.30;;
142;SDS011;63667;49.046;8.468;2023-03-01T06:35:55;55.70;;;21.03;;
142;SDS011;63667;49.046;8.468;2023-03-01T06:38:24;58.43;;;21.47;;
142;SDS011;63667;49.046;8.468;2023-03-01T06:40:52;53.73;;;20.50;;
142;SDS011;63667;49.046;8.468;2023-03-01T06:43:20;57.40;;;21.77;;
142;SDS011;63667;49.046;8.468;2023-03-01T06:45:46;53.53;;;20.93;;
142;SDS011;63667;49.046;8.468;2023-03-01T06:48:14;68.67;;;21.67;;
142;SDS011;63667;49.046;8.468;2023-03-01T06:50:40;59.83;;;21.67;;
142;SDS011;63667;49.046;8.468;2023-03-01T06:53:07;57.13;;;21.80;;
142;SDS011;63667;49.046;8.468;2023-03-01T06:55:33;65.50;;;22.43;;
142;SDS011;63667;49.046;8.468;2023-03-01T06:58:01;55.03;;;20.47;;
142;SDS011;63667;49.046;8.468;2023-03-01T07:00:28;62.33;;;22.53;;
142;SDS011;63667;49.046;8.468;2023-03-01T07:02:56;53.83;;;21.40;;
142;SDS011;63667;49.046;8.468;2023-03-01T07:05:24;60.40;;;20.97;;
142;SDS011;63667;49.046;8.468;2023-03-01T07:07:50;61.40;;;21.30;;
142;SDS011;63667;49.046;8.468;2023-03-01T07:10:17;52.83;;;20.87;;
142;SDS011;63667;49.046;8.468;2023-03-01T07:12:44;58.73;;;21.50;;
142;SDS011;63667;49.046;8.468;2023-03-01T07:15:11;60.37;;;21.87;;
142;SDS011;63667;49.046;8.468;2023-03-01T07:17:40;61.63;;;22.07;;
142;SDS011;63667;49.046;8.468;2023-03-01T07:20:06;53.07;;;20.43;;
142;SDS011;63667;49.046;8.468;2023-03-01T07:22:33;51.47;;;20.00;;
142;SDS011;63667;49.046;8.468;2023-03-01T07:25:02;75.53;;;22.20;;
142;SDS011;63667;49.046;8.468;2023-03-01T07:27:28;56.73;;;21.10;;
142;SDS011;63667;49.046;8.468;2023-03-01T07:29:57;51.17;;;20.70;;
142;SDS011;63667;49.046;8.468;2023-03-01T07:32:24;61.53;;;19.90;;
142;SDS011;63667;49.046;8.468;2023-03-01T07:34:52;56.77;;;20.80;;
142;SDS011;63667;49.046;8.468;2023-03-01T07:37:19;51.60;;;20.10;;
142;SDS011;63667;49.046;8.468;2023-03-01T07:39:47;55.10;;;20.40;;
142;SDS011;63667;49.046;8.468;2023-03-01T07:42:15;54.17;;;20.00;;
142;SDS011;63667;49.046;8.468;2023-03-01T07:44:42;56.83;;;19.50;;
142;SDS011;63667;49.046;8.468;2023-03-01T07:47:09;54.97;;;19.17;;
142;SDS011;63667;49.046;8.468;2023-03-01T07:49:37;56.50;;;19.33;;
142;SDS011;63667;49.046;8.468;2023-03-01T07:52:05;53.77;;;21.50;;
142;SDS011;63667;49.046;8.468;2023-03-01T07:54:32;54.97;;;18.30;;
142;SDS011;63667;49.046;8.468;2023-03-01T07:57:00;51.13;;;20.40;;
142;SDS011;63667;49.046;8.468;2023-03-01T07:59:27;56.13;;;20.93;;
142;SDS011;63667;49.046;8.468;2023-03-01T08:01:56;53.07;;;19.30;;
142;SDS011;63667;49.046;8.468;2023-03-01T08:04:23;51.03;;;20.07;;
142;SDS011;63667;49.046;8.468;2023-03-01T08:06:54;56.87;;;20.10;;
142;SDS011;63667;49.046;8.468;2023-03-01T08:09:21;52.80;;;19.63;;
142;SDS011;63667;49.046;8.468;2023-03-01T08:11:48;50.53;;;19.50;;
142;SDS011;63667;49.046;8.468;2023-03-01T08:14:16;57.83;;;20.43;;
142;SDS011;63667;49.046;8.468;2023-03-01T08:16:44;62.53;;;20.23;;
142;SDS011;63667;49.046;8.468;2023-03-01T08:19:11;46.90;;;19.80;;
142;SDS011;63667;49.046;8.468;2023-03-01T08:21:39;50.57;;;18.50;;
142;SDS011;63667;49.046;8.468;2023-03-01T08:24:06;49.50;;;19.63;;
142;SDS011;63667;49.046;8.468;2023-03-01T08:26:33;56.60;;;21.13;;
142;SDS011;63667;49.046;8.468;2023-03-01T08:29:01;50.63;;;20.33;;
142;SDS011;63667;49.046;8.468;2023-03-01T08:31:29;50.20;;;19.30;;
142;SDS011;63667;49.046;8.468;2023-03-01T08:33:59;59.80;;;20.80;;
142;SDS011;63667;49.046;8.468;2023-03-01T08:36:30;53.53;;;20.00;;
142;SDS011;63667;49.046;8.468;2023-03-01T08:38:57;63.20;;;20.97;;
142;SDS011;63667;49.046;8.468;2023-03-01T08:41:25;54.93;;;22.00;;
142;SDS011;63667;49.046;8.468;2023-03-01T08:43:52;56.37;;;20.93;;
142;SDS011;63667;49.046;8.468;2023-03-01T08:46:25;57.20;;;19.80;;
142;SDS011;63667;49.046;8.468;2023-03-01T08:48:52;52.53;;;21.20;;
142;SDS011;63667;49.046;8.468;2023-03-01T08:51:20;53.70;;;20.27;;
142;SDS011;63667;49.046;8.468;2023-03-01T08:53:47;53.97;;;20.23;;
142;SDS011;63667;49.046;8.468;2023-03-01T08:56:14;54.90;;;19.63;;
142;SDS011;63667;49.046;8.468;2023-03-01T08:58:46;47.10;;;18.00;;
142;SDS011;63667;49.046;8.468;2023-03-01T09:01:14;51.83;;;19.77;;
142;SDS011;63667;49.046;8.468;2023-03-01T09:03:42;60.07;;;20.67;;
142;SDS011;63667;49.046;8.468;2023-03-01T09:06:10;50.77;;;20.23;;
142;SDS011;63667;49.046;8.468;2023-03-01T09:08:41;52.67;;;19.10;;
142;SDS011;63667;49.046;8.468;2023-03-01T09:11:08;52.13;;;19.87;;
142;SDS011;63667;49.046;8.468;2023-03-01T09:13:36;53.57;;;22.27;;
142;SDS011;63667;49.046;8.468;2023-03-01T09:16:05;48.07;;;20.00;;
142;SDS011;63667;49.046;8.468;2023-03-01T09:18:33;58.60;;;21.40;;
142;SDS011;63667;49.046;8.468;2023-03-01T09:21:10;52.10;;;20.60;;
142;SDS011;63667;49.046;8.468;2023-03-01T09:23:38;49.60;;;19.73;;
142;SDS011;63667;49.046;8.468;2023-03-01T09:26:06;57.17;;;20.63;;
142;SDS011;63667;49.046;8.468;2023-03-01T09:28:35;50.13;;;19.70;;
142;SDS011;63667;49.046;8.468;2023-03-01T09:31:02;56.53;;;21.10;;
142;SDS011;63667;49.046;8.468;2023-03-01T09:33:31;53.40;;;21.53;;
142;SDS011;63667;49.046;8.468;2023-03-01T09:35:59;59.33;;;21.00;;
142;SDS011;63667;49.046;8.468;2023-03-01T09:38:27;50.93;;;19.30;;
142;SDS011;63667;49.046;8.468;2023-03-01T09:40:54;53.20;;;20.97;;
142;SDS011;63667;49.046;8.468;2023-03-01T09:43:23;55.97;;;21.63;;
142;SDS011;63667;49.046;8.468;2023-03-01T09:45:52;56.90;;;20.47;;
142;SDS011;63667;49.046;8.468;2023-03-01T09:48:22;54.73;;;22.73;;
142;SDS011;63667;49.046;8.468;2023-03-01T09:50:50;50.57;;;20.07;;
142;SDS011;63667;49.046;8.468;2023-03-01T09:53:20;52.37;;;21.00;;
142;SDS011;63667;49.046;8.468;2023-03-01T09:58:41;52.40;;;21.37;;
142;SDS011;63667;49.046;8.468;2023-03-01T10:01:28;58.53;;;21.27;;
142;SDS011;63667;49.046;8.468;2023-03-01T10:04:04;53.07;;;21.67;;
142;SDS011;63667;49.046;8.468;2023-03-01T10:06:39;54.13;;;22.40;;
142;SDS011;63667;49.046;8.468;2023-03-01T10:09:13;45.13;;;20.07;;
142;SDS011;63667;49.046;8.468;2023-03-01T10:11:42;52.93;;;21.33;;
142;SDS011;63667;49.046;8.468;2023-03-01T10:17:12;57.57;;;19.97;;
142;SDS011;63667;49.046;8.468;2023-03-01T10:19:45;53.97;;;21.57;;
142;SDS011;63667;49.046;8.468;2023-03-01T10:22:18;56.20;;;22.20;;
142;SDS011;63667;49.046;8.468;2023-03-01T10:24:47;61.67;;;22.50;;
142;SDS011;63667;49.046;8.468;2023-03-01T10:29:54;58.40;;;21.70;;
142;SDS011;63667;49.046;8.468;2023-03-01T10:32:23;55.60;;;22.70;;
142;SDS011;63667;49.046;8.468;2023-03-01T10:34:50;52.93;;;21.00;;
142;SDS011;63667;49.046;8.468;2023-03-01T10:37:19;45.03;;;20.40;;
142;SDS011;63667;49.046;8.468;2023-03-01T10:40:09;48.37;;;20.67;;
142;SDS011;63667;49.046;8.468;2023-03-01T10:42:48;62.47;;;22.00;;
142;SDS011;63667;49.046;8.468;2023-03-01T10:50:50;52.07;;;21.70;;
142;SDS011;63667;49.046;8.468;2023-03-01T10:55:47;50.40;;;21.97;;
142;SDS011;63667;49.046;8.468;2023-03-01T10:58:23;50.37;;;20.33;;
142;SDS011;63667;49.046;8.468;2023-03-01T11:00:54;70.13;;;23.43;;
142;SDS011;63667;49.046;8.468;2023-03-01T11:03:23;57.67;;;21.93;;
142;SDS011;63667;49.046;8.468;2023-03-01T11:05:52;52.03;;;22.07;;
142;SDS011;63667;49.046;8.468;2023-03-01T11:11:22;44.03;;;21.00;;
142;SDS011;63667;49.046;8.468;2023-03-01T11:14:01;51.07;;;22.97;;
142;SDS011;63667;49.046;8.468;2023-03-01T11:16:34;47.30;;;24.10;;
142;SDS011;63667;49.046;8.468;2023-03-01T11:24:05;53.63;;;22.73;;
142;SDS011;63667;49.046;8.468;2023-03-01T11:26:34;47.43;;;22.40;;
142;SDS011;63667;49.046;8.468;2023-03-01T11:29:04;45.00;;;23.57;;
142;SDS011;63667;49.046;8.468;2023-03-01T11:31:31;49.23;;;22.50;;
142;SDS011;63667;49.046;8.468;2023-03-01T11:34:14;49.20;;;23.40;;
142;SDS011;63667;49.046;8.468;2023-03-01T11:36:55;48.40;;;23.50;;
142;SDS011;63667;49.046;8.468;2023-03-01T11:40:24;46.50;;;22.00;;
142;SDS011;63667;49.046;8.468;2023-03-01T11:42:19;45.80;;;21.90;;
142;SDS011;63667;49.046;8.468;2023-03-01T11:44:48;43.90;;;21.87;;
142;SDS011;63667;49.046;8.468;2023-03-01T12:00:15;45.93;;;22.40;;
142;SDS011;63667;49.046;8.468;2023-03-01T12:02:53;44.70;;;21.67;;
142;SDS011;63667;49.046;8.468;2023-03-01T12:08:17;47.57;;;23.20;;
142;SDS011;63667;49.046;8.468;2023-03-01T12:10:50;49.90;;;20.97;;
142;SDS011;63667;49.046;8.468;2023-03-01T12:21:24;43.13;;;21.03;;
142;SDS011;63667;49.046;8.468;2023-03-01T12:24:21;49.27;;;24.10;;
142;SDS011;63667;49.046;8.468;2023-03-01T12:26:57;59.67;;;22.37;;
142;SDS011;63667;49.046;8.468;2023-03-01T12:29:34;49.67;;;22.03;;
142;SDS011;63667;49.046;8.468;2023-03-01T12:32:19;41.50;;;21.67;;
142;SDS011;63667;49.046;8.468;2023-03-01T12:34:55;47.40;;;22.50;;
142;SDS011;63667;49.046;8.468;2023-03-01T12:42:41;47.13;;;23.10;;
142;SDS011;63667;49.046;8.468;2023-03-01T12:50:49;47.10;;;23.30;;
142;SDS011;63667;49.046;8.468;2023-03-01T12:56:07;52.90;;;24.43;;
142;SDS011;63667;49.046;8.468;2023-03-01T13:11:33;48.30;;;22.73;;
142;SDS011;63667;49.046;8.468;2023-03-01T13:16:45;43.57;;;21.80;;
142;SDS011;63667;49.046;8.468;2023-03-01T13:19:18;43.90;;;21.67;;
142;SDS011;63667;49.046;8.468;2023-03-01T13:21:46;44.43;;;22.83;;
142;SDS011;63667;49.046;8.468;2023-03-01T13:32:19;45.33;;;22.20;;
142;SDS011;63667;49.046;8.468;2023-03-01T13:34:47;41.67;;;21.63;;
142;SDS011;63667;49.046;8.468;2023-03-01T13:37:21;47.57;;;22.70;;
142;SDS011;63667;49.046;8.468;2023-03-01T13:39:48;44.80;;;23.00;;
142;SDS011;63667;49.046;8.468;2023-03-01T13:44:55;39.33;;;20.27;;
142;SDS011;63667;49.046;8.468;2023-03-01T13:47:23;42.23;;;21.90;;
142;SDS011;63667;49.046;8.468;2023-03-01T13:49:52;45.00;;;21.33;;
142;SDS011;63667;49.046;8.468;2023-03-01T13:55:51;48.40;;;22.93;;
142;SDS011;63667;49.046;8.468;2023-03-01T13:57:54;45.97;;;23.27;;
142;SDS011;63667;49.046;8.468;2023-03-01T14:00:30;46.30;;;23.10;;
142;SDS011;63667;49.046;8.468;2023-03-01T14:03:02;44.50;;;21.50;;
142;SDS011;63667;49.046;8.468;2023-03-01T14:05:33;45.67;;;22.50;;
142;SDS011;63667;49.046;8.468;2023-03-01T14:08:02;51.73;;;22.40;;
142;SDS011;63667;49.046;8.468;2023-03-01T14:10:53;47.37;;;23.03;;
142;SDS011;63667;49.046;8.468;2023-03-01T14:13:22;37.93;;;20.20;;
142;SDS011;63667;49.046;8.468;2023-03-01T14:16:04;40.40;;;20.73;;
142;SDS011;63667;49.046;8.468;2023-03-01T14:18:53;42.67;;;22.27;;
142;SDS011;63667;49.046;8.468;2023-03-01T14:21:21;44.30;;;21.27;;
142;SDS011;63667;49.046;8.468;2023-03-01T14:23:51;40.20;;;20.10;;
142;SDS011;63667;49.046;8.468;2023-03-01T14:26:21;41.43;;;20.30;;
142;SDS011;63667;49.046;8.468;2023-03-01T14:28:49;42.33;;;20.90;;
142;SDS011;63667;49.046;8.468;2023-03-01T14:31:35;50.53;;;19.87;;
142;SDS011;63667;49.046;8.468;2023-03-01T14:34:02;48.37;;;21.10;;
142;SDS011;63667;49.046;8.468;2023-03-01T14:36:30;43.63;;;20.00;;
142;SDS011;63667;49.046;8.468;2023-03-01T14:38:57;41.83;;;20.37;;
142;SDS011;63667;49.046;8.468;2023-03-01T14:41:31;47.53;;;21.10;;
142;SDS011;63667;49.046;8.468;2023-03-01T14:44:01;44.87;;;22.03;;
142;SDS011;63667;49.046;8.468;2023-03-01T14:46:41;46.00;;;21.10;;
142;SDS011;63667;49.046;8.468;2023-03-01T14:51:38;45.03;;;20.97;;
142;SDS011;63667;49.046;8.468;2023-03-01T14:56:46;41.80;;;20.20;;
142;SDS011;63667;49.046;8.468;2023-03-01T14:59:13;46.60;;;20.90;;
142;SDS011;63667;49.046;8.468;2023-03-01T15:01:41;45.23;;;22.00;;
142;SDS011;63667;49.046;8.468;2023-03-01T15:04:10;46.27;;;20.80;;
142;SDS011;63667;49.046;8.468;2023-03-01T15:06:37;43.00;;;20.33;;
142;SDS011;63667;49.046;8.468;2023-03-01T15:09:05;45.60;;;21.37;;
142;SDS011;63667;49.046;8.468;2023-03-01T15:11:33;43.40;;;19.70;;
142;SDS011;63667;49.046;8.468;2023-03-01T15:14:03;42.30;;;19.70;;
142;SDS011;63667;49.046;8.468;2023-03-01T15:16:49;52.23;;;20.63;;
142;SDS011;63667;49.046;8.468;2023-03-01T15:19:17;45.43;;;19.43;;
142;SDS011;63667;49.046;8.468;2023-03-01T15:21:46;42.50;;;19.63;;
142;SDS011;63667;49.046;8.468;2023-03-01T15:26:57;40.97;;;19.23;;
142;SDS011;63667;49.046;8.468;2023-03-01T15:29:28;47.83;;;20.70;;
142;SDS011;63667;49.046;8.468;2023-03-01T15:32:00;46.00;;;20.73;;
142;SDS011;63667;49.046;8.468;2023-03-01T15:34:30;47.50;;;21.73;;
142;SDS011;63667;49.046;8.468;2023-03-01T15:37:01;46.77;;;20.73;;
142;SDS011;63667;49.046;8.468;2023-03-01T15:39:35;45.37;;;20.30;;
142;SDS011;63667;49.046;8.468;2023-03-01T15:50:22;48.30;;;20.10;;
142;SDS011;63667;49.046;8.468;2023-03-01T15:52:49;46.13;;;20.83;;
142;SDS011;63667;49.046;8.468;2023-03-01T15:55:18;42.30;;;19.07;;
142;SDS011;63667;49.046;8.468;2023-03-01T15:57:47;42.53;;;19.27;;
142;SDS011;63667;49.046;8.468;2023-03-01T16:00:14;42.40;;;20.40;;
142;SDS011;63667;49.046;8.468;2023-03-01T16:02:43;46.30;;;19.70;;
142;SDS011;63667;49.046;8.468;2023-03-01T16:05:29;49.20;;;20.67;;
142;SDS011;63667;49.046;8.468;2023-03-01T16:08:03;55.60;;;20.10;;
142;SDS011;63667;49.046;8.468;2023-03-01T16:10:32;40.70;;;18.60;;
142;SDS011;63667;49.046;8.468;2023-03-01T16:13:00;50.47;;;20.40;;
142;SDS011;63667;49.046;8.468;2023-03-01T16:15:30;47.13;;;20.97;;
142;SDS011;63667;49.046;8.468;2023-03-01T16:17:58;46.60;;;18.83;;
142;SDS011;63667;49.046;8.468;2023-03-01T16:20:25;42.87;;;19.30;;
142;SDS011;63667;49.046;8.468;2023-03-01T16:22:52;42.43;;;19.10;;
142;SDS011;63667;49.046;8.468;2023-03-01T16:25:20;43.53;;;19.90;;
142;SDS011;63667;49.046;8.468;2023-03-01T16:27:48;48.47;;;20.03;;
142;SDS011;63667;49.046;8.468;2023-03-01T16:30:17;53.03;;;20.63;;
142;SDS011;63667;49.046;8.468;2023-03-01T16:32:46;46.43;;;19.70;;
142;SDS011;63667;49.046;8.468;2023-03-01T16:35:14;48.47;;;19.67;;
142;SDS011;63667;49.046;8.468;2023-03-01T16:37:42;39.43;;;17.80;;
142;SDS011;63667;49.046;8.468;2023-03-01T16:40:19;43.13;;;19.50;;
142;SDS011;63667;49.046;8.468;2023-03-01T16:42:48;49.90;;;19.47;;
142;SDS011;63667;49.046;8.468;2023-03-01T16:45:16;45.50;;;19.27;;
142;SDS011;63667;49.046;8.468;2023-03-01T16:47:43;45.03;;;19.50;;
142;SDS011;63667;49.046;8.468;2023-03-01T16:50:10;49.27;;;18.60;;
142;SDS011;63667;49.046;8.468;2023-03-01T16:52:38;41.17;;;18.50;;
142;SDS011;63667;49.046;8.468;2023-03-01T16:55:06;44.03;;;18.50;;
142;SDS011;63667;49.046;8.468;2023-03-01T16:57:36;49.40;;;19.67;;
142;SDS011;63667;49.046;8.468;2023-03-01T17:00:06;51.40;;;19.47;;